createdAt,value
2022-09-04T00:01:24.259Z,78.52748589937148
2022-09-04T00:04:29.422Z,78.8593794690219
2022-09-04T00:07:25.923Z,79.11396577984534
2022-09-04T00:11:27.881Z,78.98751969699269
2022-09-04T00:14:20.700Z,78.94540370953216
2022-09-04T00:17:28.154Z,79.7293907689931
2022-09-04T00:21:23.370Z,79.5190423195338
2022-09-04T00:24:21.167Z,79.2878338220209
2022-09-04T00:27:22.486Z,79.24612568445065
2022-09-04T02:31:26.111Z,82.17083804142567
2022-09-04T02:34:28.402Z,82.44076238356942
2022-09-04T02:37:28.239Z,82.16268688229916
2022-09-04T02:41:24.024Z,82.5596865248322
2022-09-04T02:44:29.368Z,82.81381956469914
2022-09-04T02:47:23.003Z,82.94781649243804
2022-09-04T02:51:26.065Z,82.35903978376156
2022-09-04T02:54:37.856Z,82.23949095562342
2022-09-04T02:57:29.883Z,82.11994841310961
2022-09-04T03:01:24.592Z,81.85757118640824
2022-09-04T03:04:23.554Z,81.3700440203693
2022-09-04T03:07:25.096Z,81.8606250005241
2022-09-04T03:11:21.556Z,82.47089889866061
2022-09-04T03:14:23.545Z,82.36363701161352
2022-09-04T03:17:24.248Z,82.35059960142694
2022-09-04T03:21:23.125Z,82.689697122549
2022-09-04T03:24:24.957Z,82.77360588124168
2022-09-04T03:27:18.890Z,82.65626853503163
2022-09-04T03:31:28.632Z,82.90979976977485
2022-09-04T03:34:29.907Z,82.56044394869456
2022-09-04T03:37:29.935Z,82.84246464932883
2022-09-04T03:41:28.998Z,83.23885259984317
2022-09-04T03:44:29.852Z,83.44085737404582
2022-09-04T03:47:28.821Z,83.03977733628976
2022-09-04T03:51:26.500Z,83.19162991513379
2022-09-04T03:54:33.533Z,83.39733503890875
2022-09-04T03:57:31.124Z,84.1197315510294
2022-09-04T04:01:30.329Z,84.10210320337822
2022-09-04T04:04:39.381Z,84.07953628972487
2022-09-04T04:07:32.000Z,84.04672412052751
2022-09-04T04:11:39.054Z,84.04457303060465
2022-09-04T04:14:32.055Z,84.0949600808861
2022-09-04T04:17:32.168Z,83.9709015876704
2022-09-04T04:21:28.291Z,84.32597438588057
2022-09-04T04:24:29.101Z,84.56998084227688
2022-09-04T04:27:31.863Z,84.98680995021955
2022-09-04T04:31:28.981Z,85.4184131574239
2022-09-04T04:34:27.075Z,85.63152188281579
2022-09-04T04:37:29.799Z,85.30458040750963
2022-09-04T04:41:29.596Z,85.51928828485016
2022-09-04T04:44:21.597Z,85.82395790689844
2022-09-04T04:47:28.072Z,86.13044026220057
2022-09-04T04:51:48.299Z,85.83116586904926
2022-09-04T04:54:29.473Z,85.82211646033039
2022-09-04T04:57:26.762Z,86.09366572917325
2022-09-04T05:01:32.370Z,85.75735576143136
2022-09-04T05:04:24.427Z,85.74141337934346
2022-09-04T05:07:28.038Z,85.30284728617451
2022-09-04T05:11:26.650Z,84.41450607897664
2022-09-04T05:14:32.390Z,84.24123460789339
2022-09-04T05:17:26.318Z,84.4186818418506
2022-09-04T05:21:22.667Z,84.63530674447526
2022-09-04T05:31:27.675Z,86.1770580624235
2022-09-04T05:34:30.438Z,87.06458525199795
2022-09-04T05:37:25.066Z,86.95697356405897
2022-09-04T05:41:32.887Z,87.22226798060473
2022-09-04T05:44:34.046Z,87.97000678447353
2022-09-04T05:47:30.869Z,87.6329802974981
2022-09-04T05:51:43.244Z,87.8256626462397
2022-09-04T05:54:41.707Z,88.0257107095721
2022-09-04T05:57:28.193Z,87.36824728354182
2022-09-04T06:01:38.570Z,87.45414453927847
2022-09-04T06:04:37.320Z,87.81580566275173
2022-09-04T06:07:25.577Z,87.10982049332759
2022-09-04T06:11:41.032Z,87.26467443751577
2022-09-04T06:14:49.325Z,87.10840587134669
2022-09-04T06:17:30.332Z,86.67555747492392
2022-09-04T06:21:47.591Z,86.33517362026055
2022-09-04T06:24:33.093Z,86.34318643974025
2022-09-04T06:27:40.040Z,86.44331930874381
2022-09-04T06:31:43.226Z,87.14196470705073
2022-09-04T06:34:26.015Z,86.94619294846275
2022-09-04T06:37:25.151Z,87.00161699632939
2022-09-04T06:41:32.700Z,87.31290289380087
2022-09-04T06:44:30.123Z,87.21212637847037
2022-09-04T06:47:26.364Z,87.13978762414645
2022-09-04T06:51:32.706Z,86.90678235256864
2022-09-04T06:54:33.344Z,86.56236795376516
2022-09-04T06:57:37.364Z,86.2072153453023
2022-09-04T07:01:23.365Z,86.90243973692549
2022-09-04T07:04:29.272Z,87.39554923035054
2022-09-04T07:07:24.209Z,87.68660962846552
2022-09-04T07:11:27.147Z,87.53438000823664
2022-09-04T07:15:11.247Z,88.13442021105696
2022-09-04T07:17:26.707Z,88.53866219259625
2022-09-04T07:21:27.766Z,87.97370114529676
2022-09-04T07:24:41.528Z,88.96224845678682
2022-09-04T07:27:29.389Z,89.63243629965562
2022-09-04T07:31:32.759Z,89.27451861345722
2022-09-04T07:34:24.899Z,89.73654349932352
2022-09-04T07:37:39.756Z,90.4661929457853
2022-09-04T07:41:26.266Z,90.31524202595186
2022-09-04T07:44:23.202Z,90.39456124573327
2022-09-04T07:47:24.928Z,91.14863967580347
2022-09-04T07:51:20.121Z,91.30639119944179
2022-09-04T07:54:35.434Z,91.49349187480561
2022-09-04T07:57:32.106Z,91.18210948271286
2022-09-04T08:01:41.314Z,91.78061762498118
2022-09-04T08:04:43.311Z,90.4779403187005
2022-09-04T08:07:41.706Z,89.57865496617133
2022-09-04T08:11:33.322Z,91.41743246583296
2022-09-04T08:14:25.945Z,92.11988719567734
2022-09-04T08:17:39.468Z,93.25776931665132
2022-09-04T08:21:24.898Z,95.11812654001551
2022-09-04T08:24:43.814Z,94.77549744144066
2022-09-04T08:27:34.682Z,95.3270774117912
2022-09-04T08:31:28.539Z,95.21152420813175
2022-09-04T08:34:38.936Z,95.20394872543909
2022-09-04T08:37:26.272Z,95.40360738588082
2022-09-04T08:51:46.961Z,98.19016970380711
2022-09-04T08:55:35.105Z,99.08268611879515
2022-09-04T08:57:41.355Z,99.48305730363771
2022-09-04T09:01:57.876Z,100
2022-09-04T09:21:32.693Z,100
2022-09-04T09:31:47.223Z,100
2022-09-04T09:34:42.913Z,100
2022-09-04T09:38:13.472Z,100
2022-09-04T09:42:31.501Z,100
2022-09-04T09:44:40.062Z,100
2022-09-04T09:51:45.335Z,100
2022-09-04T10:01:40.749Z,100
2022-09-04T10:05:04.928Z,100
2022-09-04T10:08:56.701Z,100
2022-09-04T10:11:35.746Z,100
2022-09-04T10:14:37.186Z,100
2022-09-04T10:31:53.377Z,100
2022-09-04T10:34:35.202Z,100
2022-09-04T10:37:32.741Z,100
2022-09-04T10:41:44.713Z,100
2022-09-04T10:44:39.378Z,100
2022-09-04T10:47:28.312Z,100
2022-09-04T10:51:36.642Z,100
2022-09-04T10:54:42.752Z,100
2022-09-04T10:57:39.154Z,100
2022-09-04T11:01:36.772Z,100
2022-09-04T11:11:39.608Z,89.80855179449146
2022-09-04T11:14:37.620Z,83.75988034924958
2022-09-04T11:17:51.444Z,81.3282632170986
2022-09-04T11:22:16.491Z,85.8639763499077
2022-09-04T11:24:39.774Z,83.79320023050435
2022-09-04T11:27:42.413Z,76.85690447610776
2022-09-04T11:31:31.357Z,76.7338598092024
2022-09-04T11:35:11.638Z,77.06739741668399
2022-09-04T11:37:46.542Z,71.81207973557069
2022-09-04T11:41:36.169Z,65.72197243906716
2022-09-04T11:51:37.436Z,68.04317159590855
2022-09-04T12:01:35.486Z,60.04718698633652
2022-09-04T12:04:39.961Z,56.64841430439773
2022-09-04T12:07:37.918Z,56.6460694804239
2022-09-04T12:11:40.447Z,62.513851344272595
2022-09-04T12:14:34.193Z,62.263496407448955
2022-09-04T12:21:38.667Z,58.04408534481652
2022-09-04T12:24:40.910Z,56.878809370745856
2022-09-04T12:27:36.678Z,56.08307368113449
2022-09-04T12:31:38.423Z,57.33247996813054
2022-09-04T12:34:51.149Z,57.55850161225555
2022-09-04T12:38:24.555Z,54.98938575609852
2022-09-04T12:41:24.265Z,56.14872226667741
2022-09-04T12:44:26.350Z,54.550741947419894
2022-09-04T12:47:31.506Z,54.5791121380477
2022-09-04T12:51:18.984Z,52.278411204797905
2022-09-04T12:54:30.682Z,52.36968894487124
2022-09-04T12:57:32.861Z,56.143820260853744
2022-09-04T13:01:27.808Z,54.162109650852734
2022-09-04T13:04:21.934Z,54.39197378648278
2022-09-04T13:11:40.220Z,51.315226648350745
2022-09-04T13:14:45.926Z,50.33263622535618
2022-09-04T13:17:36.748Z,50.16954047812217
2022-09-04T13:21:25.637Z,50.735528510130614
2022-09-04T13:31:47.602Z,47.38794244044358
2022-09-04T13:34:26.490Z,48.06994688024497
2022-09-04T13:37:25.178Z,47.89634131256993
2022-09-04T13:41:37.403Z,46.084101275158176
2022-09-04T13:44:52.931Z,46.47980298672436
2022-09-04T13:47:22.754Z,47.8776583796429
2022-09-04T13:51:19.712Z,50.17335520560967
2022-09-04T13:54:20.496Z,49.89687335995608
2022-09-04T13:57:19.460Z,49.78564234526604
2022-09-04T14:01:18.812Z,50.32458053950891
2022-09-04T14:04:20.110Z,49.02769705240891
2022-09-04T14:07:23.811Z,47.83533579337988
2022-09-04T14:12:10.812Z,44.31065060349899
2022-09-04T14:21:30.046Z,44.29286107013859
2022-09-04T14:24:26.867Z,43.32987412369599
2022-09-04T14:27:27.710Z,45.250384986920984
2022-09-04T14:31:25.586Z,44.50598594972476
2022-09-04T14:34:24.377Z,43.86776257758778
2022-09-04T14:37:31.215Z,45.58777355495777
2022-09-04T14:41:34.645Z,45.565222971697445
2022-09-04T14:44:32.413Z,44.53642432582781
2022-09-04T14:51:30.404Z,46.232614031908376
2022-09-04T14:54:25.482Z,42.14741941211153
2022-09-04T14:57:24.914Z,43.46035797549549
2022-09-04T15:01:19.518Z,41.603124885493436
2022-09-04T15:04:24.430Z,41.780655138840324
2022-09-04T15:07:31.223Z,43.71453371256919
2022-09-04T15:11:30.930Z,43.288953337212924
2022-09-04T15:14:26.653Z,42.92228100323145
2022-09-04T15:17:29.349Z,42.75656190117689
2022-09-04T15:21:23.979Z,42.490472663600784
2022-09-04T15:24:26.720Z,43.909690120627474
2022-09-04T15:27:21.811Z,44.15815423926121
2022-09-04T15:31:28.872Z,42.67973327296688
2022-09-04T15:34:21.687Z,44.890894700781686
2022-09-04T15:37:25.151Z,44.39437422269969
2022-09-04T15:41:26.929Z,44.601261800373194
2022-09-04T15:44:29.200Z,43.537495091202246
2022-09-04T15:47:24.705Z,43.90395968825387
2022-09-04T15:51:22.655Z,43.927394133836096
2022-09-04T15:54:27.509Z,43.44253410526097
2022-09-04T15:57:21.188Z,42.83343483935548
2022-09-04T16:01:22.473Z,44.19314272445169
2022-09-04T16:04:26.169Z,43.513238361552354
2022-09-04T16:07:34.984Z,43.53665997084775
2022-09-04T16:11:25.069Z,43.56600250260906
2022-09-04T16:14:22.764Z,42.845273839089714
2022-09-04T16:17:23.660Z,43.90891427238807
2022-09-04T16:21:23.932Z,43.784224261719906
2022-09-04T16:24:20.942Z,43.51823938011068
2022-09-04T16:27:21.880Z,42.54338631462913
2022-09-04T16:31:23.505Z,43.29918020531546
2022-09-04T16:34:20.936Z,41.999855281178135
2022-09-04T16:37:25.070Z,42.71450688196719
2022-09-04T16:41:20.001Z,42.88556646972412
2022-09-04T16:44:26.499Z,43.19829964865191
2022-09-04T16:47:22.295Z,43.109858508873955
2022-09-04T16:51:39.809Z,44.035087529367516
2022-09-04T16:54:23.203Z,42.79640452109976
2022-09-04T16:57:24.514Z,43.16763774792581
2022-09-04T17:01:22.790Z,43.16109919841727
2022-09-04T17:04:29.166Z,44.922143386998215
2022-09-04T17:07:23.451Z,46.26977368387865
2022-09-04T17:11:22.609Z,48.261359858262075
2022-09-04T17:14:21.908Z,49.082559256033555
2022-09-04T17:17:29.825Z,50.03814354357955
2022-09-04T17:28:56.216Z,50.94140951901169
2022-09-04T17:31:24.684Z,54.03945101932033
2022-09-04T17:40:36.664Z,53.95708307445632
2022-09-04T17:41:40.706Z,55.317400453807736
2022-09-04T17:44:29.290Z,55.28147619083329
2022-09-04T17:47:26.286Z,55.49558577773237
2022-09-04T17:51:21.219Z,56.3038354034566
2022-09-04T17:54:17.278Z,56.67903498012331
2022-09-04T17:57:25.323Z,57.30640561635167
2022-09-04T18:01:24.048Z,58.06537492629847
2022-09-04T18:04:24.624Z,58.53083067970817
2022-09-04T18:08:06.994Z,58.989136447065306
2022-09-04T18:11:24.576Z,59.77665132523847
2022-09-04T18:14:30.298Z,59.746945367917505
2022-09-04T18:17:21.941Z,60.21422103688659
2022-09-04T18:21:23.072Z,60.46188523084921
2022-09-04T18:24:20.556Z,61.08604854512736
2022-09-04T18:27:22.737Z,61.66269045143693
2022-09-04T18:37:10.377Z,61.865894297899885
2022-09-04T18:45:05.454Z,63.11805245679252
2022-09-04T18:51:22.913Z,64.89204540086364
2022-09-04T18:54:24.358Z,65.3486226819374
2022-09-04T18:57:26.476Z,65.01035687359287
2022-09-04T19:01:26.703Z,65.98847592481053
2022-09-04T19:04:35.435Z,66.27741584904831
2022-09-04T19:07:24.206Z,66.45066310139734
2022-09-04T19:11:24.818Z,67.29591096393975
2022-09-04T19:14:22.525Z,66.66753979794464
2022-09-04T19:17:21.814Z,67.27727876481894
2022-09-04T19:21:26.129Z,67.7647826618409
2022-09-04T19:24:25.949Z,68.12894504689919
2022-09-04T19:27:27.657Z,67.66988206153894
2022-09-04T19:31:25.626Z,68.37078081427109
2022-09-04T19:34:22.876Z,68.53064296602128
2022-09-04T19:41:20.638Z,69.24352706347608
2022-09-04T19:46:00.354Z,68.89222948221992
2022-09-04T19:47:34.466Z,69.02507264922323
2022-09-04T19:53:33.747Z,69.65432325816988
2022-09-04T19:54:26.714Z,69.8857686736667
2022-09-04T19:57:32.009Z,70.11160920960354
2022-09-04T20:01:20.483Z,70.37301442608656
2022-09-04T20:04:28.158Z,71.19081925672802
2022-09-04T20:07:25.452Z,71.16162911158571
2022-09-04T20:11:35.225Z,71.59333676396591
2022-09-04T20:14:25.586Z,71.71285663752057
2022-09-04T20:17:37.438Z,72.35902853968514
2022-09-04T20:21:23.485Z,73.17525764996547
2022-09-04T20:24:21.296Z,72.82285515728377
2022-09-04T20:27:26.143Z,73.04794884280743
2022-09-04T20:31:55.050Z,73.0096385683695
2022-09-04T20:34:31.025Z,73.04012114716026
2022-09-04T20:37:30.805Z,73.30502808967977
2022-09-04T20:41:23.470Z,73.56643233279516
2022-09-04T20:44:22.784Z,73.8349419875983
2022-09-04T20:52:52.793Z,73.41345854025685
2022-09-04T20:52:54.742Z,74.03751196093526
2022-09-04T20:54:33.237Z,73.74779417874875
2022-09-04T21:01:57.815Z,74.43505283015267
2022-09-04T21:03:21.628Z,74.03629736106771
2022-09-04T21:04:42.801Z,74.42669084910877
2022-09-04T21:07:27.586Z,74.98290694096579
2022-09-04T21:11:39.359Z,74.1422907837393
2022-09-04T21:14:22.466Z,74.04922776928133
2022-09-04T21:17:34.740Z,74.78078397384178
2022-09-04T21:21:39.597Z,74.55131824261987
2022-09-04T21:41:31.889Z,75.40227334448217
2022-09-04T21:44:37.377Z,75.90590568596049
2022-09-04T21:47:34.544Z,76.2870694406705
2022-09-04T21:51:33.524Z,76.0020551182112
2022-09-04T21:54:38.338Z,76.35527469880672
2022-09-04T22:02:28.873Z,75.5963662844141
2022-09-04T22:02:44.807Z,76.44653133854827
2022-09-04T22:04:33.571Z,76.5650516812396
2022-09-04T22:21:24.934Z,77.56390197961562
2022-09-04T22:24:33.188Z,77.47726974167429
2022-09-04T23:02:47.007Z,79.87673749393213
2022-09-04T23:51:25.672Z,81.25071233204518
2022-09-04T23:54:46.980Z,81.32756855176842
2022-09-04T23:57:26.750Z,81.43296810573479
